Time;durP1;ratioP1;P1;durP2;ratioP2;P2;SDS_P1;SDS_P2;PMS_P1;PMS_P2;Temp;Humidity;BMP_temperature;BMP_pressure;BME280_temperature;BME280_humidity;BME280_pressure;Samples;Min_cycle;Max_cycle;Signal;HPM_P1;HPM_P2
2023/08/01 00:00:18;;;;;;;0.40;0.40;;;;;;;16.53;97.78;95940.78;29395;219;63009;-57
2023/08/01 00:00:49;;;;;;;0.40;0.40;;;;;;;16.51;97.02;95948.56;29395;216;63005;-56
2023/08/01 00:01:21;;;;;;;0.40;0.40;;;;;;;16.51;96.86;95943.06;29395;209;63009;-56
2023/08/01 00:01:52;;;;;;;0.40;0.40;;;;;;;16.52;96.60;95936.44;29395;214;63005;-56
2023/08/01 00:02:24;;;;;;;0.40;0.40;;;;;;;16.53;97.21;95934.50;29395;215;63009;-58
2023/08/01 00:02:55;;;;;;;0.40;0.40;;;;;;;16.55;96.84;95943.97;29395;205;63005;-57
2023/08/01 00:03:27;;;;;;;0.40;0.40;;;;;;;16.56;96.99;95939.28;29394;243;64013;-56
2023/08/01 00:03:59;;;;;;;0.40;0.40;;;;;;;16.61;97.58;95936.28;29395;230;63004;-56
2023/08/01 00:04:32;;;;;;;0.40;0.40;;;;;;;16.63;95.71;95937.50;29395;198;63027;-57
2023/08/01 00:05:04;;;;;;;0.40;0.40;;;;;;;16.61;95.23;95934.34;29395;223;63004;-56
2023/08/01 00:05:35;;;;;;;0.47;0.47;;;;;;;16.63;96.33;95936.72;29395;240;63009;-58
2023/08/01 00:06:06;;;;;;;0.40;0.40;;;;;;;16.62;96.39;95938.66;29395;221;63004;-56
2023/08/01 00:06:39;;;;;;;0.50;0.50;;;;;;;16.62;97.43;95935.94;29395;238;63009;-65
2023/08/01 00:07:11;;;;;;;0.40;0.40;;;;;;;16.62;97.21;95930.44;29395;223;63005;-63
2023/08/01 00:07:43;;;;;;;0.40;0.40;;;;;;;16.60;97.09;95935.47;29395;219;63009;-57
2023/08/01 00:08:14;;;;;;;0.40;0.40;;;;;;;16.58;97.49;95932.31;29395;260;63011;-57
2023/08/01 00:08:47;;;;;;;0.40;0.40;;;;;;;16.55;97.34;95927.53;29394;236;64013;-56
2023/08/01 00:09:19;;;;;;;0.40;0.40;;;;;;;16.54;97.55;95931.41;29395;239;63010;-56
2023/08/01 00:09:50;;;;;;;0.40;0.40;;;;;;;16.53;98.18;95932.56;29395;291;63009;-56
2023/08/01 00:10:22;;;;;;;0.40;0.40;;;;;;;16.51;98.55;95931.34;29395;205;63005;-61
2023/08/01 00:10:54;;;;;;;0.40;0.40;;;;;;;16.48;98.76;95932.84;29395;211;63009;-58
2023/08/01 00:11:25;;;;;;;0.40;0.40;;;;;;;16.45;99.33;95922.59;29395;217;63004;-58
2023/08/01 00:11:57;;;;;;;0.40;0.40;;;;;;;16.43;99.68;95930.34;29395;236;63009;-56
2023/08/01 00:12:28;;;;;;;0.40;0.40;;;;;;;16.45;100.00;95922.59;29394;219;64004;-55
2023/08/01 00:12:59;;;;;;;0.40;0.40;;;;;;;16.46;100.00;95926.13;29395;215;63009;-56
2023/08/01 00:13:32;;;;;;;0.40;0.40;;;;;;;16.47;100.00;95925.75;29394;304;64004;-57
2023/08/01 00:14:03;;;;;;;0.40;0.40;;;;;;;16.49;100.00;95928.94;29394;230;64014;-57
2023/08/01 00:14:36;;;;;;;0.40;0.40;;;;;;;16.47;99.86;95928.50;29395;246;63005;-57
2023/08/01 00:15:10;;;;;;;0.40;0.40;;;;;;;16.45;100.00;95928.06;29395;246;63009;-62
2023/08/01 00:15:42;;;;;;;0.40;0.40;;;;;;;16.40;99.36;95923.63;29395;260;63005;-57
2023/08/01 00:16:13;;;;;;;0.40;0.40;;;;;;;16.39;99.57;95918.50;29395;216;63009;-59
2023/08/01 00:16:45;;;;;;;0.40;0.40;;;;;;;16.36;99.40;95911.00;29395;225;63005;-57
2023/08/01 00:17:17;;;;;;;0.40;0.40;;;;;;;16.34;99.96;95910.56;29395;227;63009;-61
2023/08/01 00:17:51;;;;;;;0.40;0.40;;;;;;;16.35;100.00;95912.94;29395;289;63005;-57
2023/08/01 00:18:23;;;;;;;0.40;0.40;;;;;;;16.35;100.00;95912.94;29395;218;63009;-62
2023/08/01 00:18:57;;;;;;;0.40;0.40;;;;;;;16.34;100.00;95911.34;29395;216;63004;-57
2023/08/01 00:19:29;;;;;;;0.40;0.40;;;;;;;16.32;100.00;95908.19;29394;226;64013;-63
2023/08/01 00:20:02;;;;;;;0.40;0.40;;;;;;;16.31;100.00;95905.78;29395;199;63004;-56
2023/08/01 00:20:33;;;;;;;0.37;0.37;;;;;;;16.30;100.00;95898.72;29395;218;63016;-56
2023/08/01 00:21:09;;;;;;;0.40;0.40;;;;;;;16.30;100.00;95904.19;29395;220;63004;-64
2023/08/01 00:21:41;;;;;;;0.40;0.40;;;;;;;16.30;100.00;95904.19;29395;239;63009;-57
2023/08/01 00:22:12;;;;;;;0.40;0.40;;;;;;;16.31;100.00;95911.28;29395;231;63010;-62
2023/08/01 00:22:44;;;;;;;0.40;0.40;;;;;;;16.33;100.00;95903.50;29394;210;64009;-63
2023/08/01 00:23:15;;;;;;;0.40;0.40;;;;;;;16.32;100.00;95908.19;29395;246;63005;-56
2023/08/01 00:23:47;;;;;;;0.40;0.40;;;;;;;16.31;100.00;95906.59;29395;215;63009;-62
2023/08/01 00:24:20;;;;;;;0.30;0.30;;;;;;;16.30;100.00;95909.69;29395;243;63010;-63
2023/08/01 00:24:51;;;;;;;0.40;0.40;;;;;;;16.31;100.00;95898.38;29394;209;64013;-57
2023/08/01 00:25:23;;;;;;;0.40;0.40;;;;;;;16.31;100.00;95900.31;29395;227;63005;-64
2023/08/01 00:25:56;;;;;;;0.40;0.40;;;;;;;16.31;100.00;95906.59;29395;202;63009;-62
2023/08/01 00:26:30;;;;;;;2.35;2.25;;;;;;;16.31;100.00;95906.59;29395;202;63004;-63
2023/08/01 00:27:02;;;;;;;0.40;0.40;;;;;;;16.32;100.00;95908.19;29395;267;63009;-64
2023/08/01 00:27:37;;;;;;;0.40;0.40;;;;;;;16.31;100.00;95905.78;29395;206;63004;-56
2023/08/01 00:28:09;;;;;;;0.40;0.40;;;;;;;16.30;100.00;95904.19;29395;235;63013;-57
2023/08/01 00:28:40;;;;;;;0.40;0.40;;;;;;;16.30;100.00;95904.19;29395;229;63004;-62
2023/08/01 00:29:11;;;;;;;0.40;0.40;;;;;;;16.30;100.00;95901.47;29395;223;63009;-62
2023/08/01 00:29:43;;;;;;;0.40;0.40;;;;;;;16.28;100.00;95895.56;29395;238;63005;-56
2023/08/01 00:30:14;;;;;;;0.40;0.40;;;;;;;16.26;100.00;95898.66;29394;213;64014;-57
2023/08/01 00:30:46;;;;;;;0.40;0.40;;;;;;;16.27;100.00;95894.00;29394;212;64005;-62
2023/08/01 00:31:17;;;;;;;0.40;0.40;;;;;;;16.28;100.00;95901.06;29395;240;63009;-56
2023/08/01 00:31:49;;;;;;;0.40;0.40;;;;;;;16.26;100.00;95890.47;29395;252;63008;-56
2023/08/01 00:32:20;;;;;;;0.40;0.40;;;;;;;16.26;100.00;95893.19;29395;218;63009;-56
2023/08/01 00:32:52;;;;;;;0.40;0.40;;;;;;;16.28;100.00;95890.09;29395;211;63005;-58
2023/08/01 00:33:23;;;;;;;0.40;0.40;;;;;;;16.29;100.00;95891.66;29394;308;64013;-63
2023/08/01 00:33:54;;;;;;;0.40;0.40;;;;;;;16.30;100.00;95893.25;29394;239;64004;-57
2023/08/01 00:34:26;;;;;;;0.40;0.40;;;;;;;16.29;100.00;95884.25;29395;271;63009;-57
2023/08/01 00:34:57;;;;;;;0.40;0.40;;;;;;;16.32;100.00;95888.22;29395;234;63007;-56
2023/08/01 00:35:29;;;;;;;0.40;0.40;;;;;;;16.33;100.00;95878.88;29395;213;63015;-57
2023/08/01 00:36:09;;;;;;;0.40;0.40;;;;;;;16.34;100.00;95885.94;29394;202;64008;-57
2023/08/01 00:36:40;;;;;;;0.40;0.40;;;;;;;16.35;99.73;95895.72;29395;221;63009;-56
2023/08/01 00:37:11;;;;;;;0.40;0.40;;;;;;;16.32;99.25;95880.81;29395;215;63005;-57
2023/08/01 00:37:42;;;;;;;0.47;0.47;;;;;;;16.32;99.07;95886.28;29395;198;63009;-56
2023/08/01 00:38:13;;;;;;;0.40;0.40;;;;;;;16.31;98.84;95878.41;29395;224;63005;-57
2023/08/01 00:38:45;;;;;;;0.30;0.30;;;;;;;16.31;98.59;95883.91;29395;197;63009;-57
2023/08/01 00:39:16;;;;;;;0.40;0.40;;;;;;;16.31;98.93;95883.91;29395;196;63005;-56
2023/08/01 00:39:50;;;;;;;0.40;0.40;;;;;;;16.31;99.06;95883.91;29395;244;63009;-58
2023/08/01 00:40:22;;;;;;;0.40;0.40;;;;;;;16.32;99.78;95880.81;29395;197;63004;-57
2023/08/01 00:40:54;;;;;;;0.40;0.40;;;;;;;16.32;99.99;95871.78;29395;260;63009;-57
2023/08/01 00:41:25;;;;;;;0.30;0.30;;;;;;;16.29;99.38;95878.78;29394;236;64009;-57
2023/08/01 00:41:56;;;;;;;0.45;0.45;;;;;;;16.30;99.36;95876.84;29395;235;63009;-56
2023/08/01 00:42:27;;;;;;;0.40;0.40;;;;;;;16.30;99.14;95877.63;29395;199;63004;-56
2023/08/01 00:42:59;;;;;;;0.40;0.40;;;;;;;16.33;99.00;95870.66;29395;198;63008;-56
2023/08/01 00:43:30;;;;;;;0.40;0.40;;;;;;;16.35;97.99;95873.81;29395;244;63004;-56
2023/08/01 00:44:02;;;;;;;0.40;0.40;;;;;;;16.35;98.10;95879.31;29395;227;63019;-56
2023/08/01 00:44:33;;;;;;;0.32;0.32;;;;;;;16.33;97.39;95870.66;29395;239;63005;-58
2023/08/01 00:45:06;;;;;;;0.40;0.40;;;;;;;16.36;97.09;95870.75;29395;285;63009;-57
2023/08/01 00:45:37;;;;;;;0.40;0.40;;;;;;;16.35;96.72;95876.56;29395;202;63005;-57
2023/08/01 00:46:09;;;;;;;0.37;0.37;;;;;;;16.35;97.08;95869.16;29395;239;63009;-57
2023/08/01 00:46:40;;;;;;;0.40;0.40;;;;;;;16.35;97.29;95876.56;29394;227;64009;-57
2023/08/01 00:47:11;;;;;;;0.40;0.40;;;;;;;16.35;97.60;95876.56;29395;299;63009;-56
2023/08/01 00:47:43;;;;;;;0.40;0.40;;;;;;;16.33;97.68;95871.44;29395;224;63004;-57
2023/08/01 00:48:15;;;;;;;0.40;0.40;;;;;;;16.34;97.96;95872.25;29395;228;63009;-57
2023/08/01 00:48:46;;;;;;;0.40;0.40;;;;;;;16.35;98.24;95873.81;29395;258;63004;-57
2023/08/01 00:49:18;;;;;;;0.40;0.40;;;;;;;16.33;98.59;95873.38;29395;259;63009;-57
2023/08/01 00:49:50;;;;;;;0.40;0.40;;;;;;;16.34;98.29;95869.50;29394;241;64004;-58
2023/08/01 00:50:22;;;;;;;0.40;0.40;;;;;;;16.33;98.90;95871.44;29395;199;63008;-57
2023/08/01 00:50:56;;;;;;;0.40;0.40;;;;;;;16.33;98.51;95867.91;29395;239;63004;-57
2023/08/01 00:51:29;;;;;;;0.40;0.40;;;;;;;16.31;98.61;95864.72;29394;204;64009;-58
2023/08/01 00:52:01;;;;;;;0.40;0.40;;;;;;;16.33;98.89;95865.19;29394;228;64009;-57
2023/08/01 00:52:34;;;;;;;0.40;0.40;;;;;;;16.34;99.13;95866.75;29395;211;63009;-57
2023/08/01 00:53:05;;;;;;;0.40;0.40;;;;;;;16.32;99.29;95869.06;29395;212;63005;-56
2023/08/01 00:53:38;;;;;;;0.40;0.40;;;;;;;16.31;99.47;95867.47;29395;220;63009;-56
2023/08/01 00:54:09;;;;;;;0.40;0.40;;;;;;;16.30;99.47;95866.69;29395;271;63005;-57
2023/08/01 00:54:40;;;;;;;0.40;0.40;;;;;;;16.32;99.49;95866.31;29395;252;63009;-56
2023/08/01 00:55:12;;;;;;;0.40;0.40;;;;;;;16.32;98.85;95871.78;29395;296;63004;-56
2023/08/01 00:55:44;;;;;;;0.40;0.40;;;;;;;16.31;98.84;95862.00;29395;206;63009;-57
2023/08/01 00:56:15;;;;;;;0.40;0.40;;;;;;;16.35;99.10;95862.87;29395;227;63004;-58
2023/08/01 00:56:47;;;;;;;0.40;0.40;;;;;;;16.34;99.56;95853.88;29395;296;63009;-56
2023/08/01 00:57:19;;;;;;;0.40;0.40;;;;;;;16.34;99.19;95855.81;29394;245;64009;-56
2023/08/01 00:57:52;;;;;;;0.40;0.40;;;;;;;16.33;99.26;95865.19;29395;213;63008;-57
2023/08/01 00:58:23;;;;;;;0.35;0.35;;;;;;;16.32;99.17;95861.66;29395;215;63006;-57
2023/08/01 00:58:54;;;;;;;0.40;0.40;;;;;;;16.32;98.74;95860.84;29395;210;63009;-56
2023/08/01 00:59:26;;;;;;;0.40;0.40;;;;;;;16.31;98.75;95862.00;29395;266;63010;-57
2023/08/01 00:59:57;;;;;;;0.40;0.40;;;;;;;16.31;99.22;95862.00;29395;225;63009;-56
2023/08/01 01:00:28;;;;;;;0.40;0.40;;;;;;;16.32;99.30;95852.63;29395;252;63005;-57
2023/08/01 01:01:00;;;;;;;0.40;0.40;;;;;;;16.31;99.22;95851.03;29395;200;63009;-58
2023/08/01 01:01:31;;;;;;;0.40;0.40;;;;;;;16.30;99.31;95850.25;29395;198;63005;-57
2023/08/01 01:02:04;;;;;;;0.40;0.40;;;;;;;16.33;100.00;95855.03;29395;236;63009;-56
2023/08/01 01:02:37;;;;;;;0.40;0.40;;;;;;;16.32;99.72;95852.63;29394;215;64000;-56
2023/08/01 01:03:08;;;;;;;0.40;0.40;;;;;;;16.31;99.61;95845.56;29395;198;63009;-57
2023/08/01 01:03:40;;;;;;;0.40;0.40;;;;;;;16.30;99.23;95850.25;29395;207;63004;-56
2023/08/01 01:04:11;;;;;;;0.40;0.40;;;;;;;16.32;100.00;95852.63;29395;196;63009;-56
2023/08/01 01:04:42;;;;;;;0.40;0.40;;;;;;;16.31;99.80;95842.84;29395;227;63004;-57
2023/08/01 01:05:15;;;;;;;0.40;0.40;;;;;;;16.33;100.00;95844.06;29395;202;63008;-58
2023/08/01 01:05:53;;;;;;;0.40;0.40;;;;;;;16.34;99.46;95839.37;29395;224;63010;-58
2023/08/01 01:06:33;;;;;;;0.40;0.40;;;;;;;16.34;99.37;95845.66;29395;199;63009;-56
2023/08/01 01:07:07;;;;;;;0.40;0.40;;;;;;;16.33;98.75;95846.00;29395;215;63005;-57
2023/08/01 01:07:39;;;;;;;0.30;0.30;;;;;;;16.36;99.46;95837.09;29394;212;64014;-57
2023/08/01 01:08:14;;;;;;;0.40;0.40;;;;;;;16.37;99.80;95833.22;29395;272;63009;-57
2023/08/01 01:08:47;;;;;;;0.40;0.40;;;;;;;16.41;99.70;95837.63;29395;244;63009;-64
2023/08/01 01:09:20;;;;;;;0.32;0.32;;;;;;;16.43;98.74;95842.75;29395;202;63005;-56
2023/08/01 01:09:51;;;;;;;0.40;0.40;;;;;;;16.42;98.03;95841.16;29395;215;63009;-56
2023/08/01 01:10:23;;;;;;;0.30;0.30;;;;;;;16.41;97.55;95839.56;29395;214;63004;-56
2023/08/01 01:10:55;;;;;;;0.30;0.30;;;;;;;16.47;97.93;95843.62;29394;234;64009;-56
2023/08/01 01:11:29;;;;;;;0.30;0.30;;;;;;;16.47;97.37;95840.88;29395;271;63009;-56
2023/08/01 01:12:01;;;;;;;0.40;0.40;;;;;;;16.45;96.65;95845.91;29395;223;63019;-57
2023/08/01 01:12:32;;;;;;;0.40;0.40;;;;;;;16.43;96.28;95835.31;29395;197;63004;-57
2023/08/01 01:13:03;;;;;;;0.40;0.40;;;;;;;16.44;97.13;95847.06;29394;202;64013;-56
2023/08/01 01:13:35;;;;;;;0.40;0.40;;;;;;;16.46;97.58;95843.97;29395;257;63005;-57
2023/08/01 01:14:09;;;;;;;0.40;0.40;;;;;;;16.43;98.26;95838.06;29395;205;63009;-57
2023/08/01 01:14:41;;;;;;;0.40;0.40;;;;;;;16.45;98.10;95834.16;29395;198;63005;-57
2023/08/01 01:15:12;;;;;;;0.40;0.40;;;;;;;16.43;98.22;95831.78;29395;216;63009;-57
2023/08/01 01:15:44;;;;;;;0.40;0.40;;;;;;;16.42;97.57;95831.00;29395;234;63005;-57
2023/08/01 01:16:16;;;;;;;0.40;0.40;;;;;;;16.43;97.88;95831.78;29395;226;63009;-57
2023/08/01 01:16:47;;;;;;;0.40;0.40;;;;;;;16.47;98.28;95831.87;29395;245;63005;-57
2023/08/01 01:17:18;;;;;;;0.40;0.40;;;;;;;16.47;97.73;95834.63;29395;205;63009;-56
2023/08/01 01:17:50;;;;;;;0.40;0.40;;;;;;;16.48;98.73;95828.78;29395;222;63004;-56
2023/08/01 01:18:21;;;;;;;0.40;0.40;;;;;;;16.49;99.84;95827.62;29394;271;64013;-56
2023/08/01 01:18:52;;;;;;;0.40;0.40;;;;;;;16.50;99.44;95831.97;29395;224;63004;-56
2023/08/01 01:19:23;;;;;;;0.40;0.40;;;;;;;16.49;99.38;95829.56;29395;255;63009;-57
2023/08/01 01:19:55;;;;;;;0.40;0.40;;;;;;;16.47;97.82;95824.44;29395;234;63004;-57
2023/08/01 01:20:34;;;;;;;0.40;0.40;;;;;;;16.47;96.59;95823.66;29395;202;63008;-57
2023/08/01 01:21:06;;;;;;;0.40;0.40;;;;;;;16.46;95.42;95825.59;29395;215;63004;-57
2023/08/01 01:21:41;;;;;;;0.40;0.40;;;;;;;16.48;96.71;95820.56;29395;286;63009;-58
2023/08/01 01:22:13;;;;;;;0.40;0.40;;;;;;;16.50;96.95;95821.00;29395;256;63005;-57
2023/08/01 01:22:45;;;;;;;0.40;0.40;;;;;;;16.49;95.26;95813.94;29395;293;63009;-58
2023/08/01 01:23:17;;;;;;;0.40;0.40;;;;;;;16.50;95.96;95815.53;29395;212;63005;-57
2023/08/01 01:23:51;;;;;;;0.40;0.40;;;;;;;16.50;95.88;95815.53;29394;208;64013;-55
2023/08/01 01:24:23;;;;;;;0.32;0.32;;;;;;;16.52;97.30;95820.66;29395;227;63005;-61
2023/08/01 01:24:55;;;;;;;0.40;0.40;;;;;;;16.54;97.39;95805.44;29395;245;63009;-58
2023/08/01 01:25:28;;;;;;;0.40;0.40;;;;;;;16.55;96.29;95807.03;29395;243;63010;-57
2023/08/01 01:26:00;;;;;;;0.40;0.40;;;;;;;16.54;95.90;95810.94;29395;202;63014;-56
2023/08/01 01:26:40;;;;;;;0.47;0.47;;;;;;;16.57;97.13;95809.44;29395;223;63004;-57
2023/08/01 01:27:12;;;;;;;0.40;0.40;;;;;;;16.57;97.30;95809.44;29395;231;63009;-56
2023/08/01 01:27:45;;;;;;;0.40;0.40;;;;;;;16.58;98.34;95828.25;29395;242;63004;-56
2023/08/01 01:28:17;;;;;;;0.40;0.40;;;;;;;16.57;96.88;95825.84;29395;226;63025;-56
2023/08/01 01:28:50;;;;;;;0.30;0.30;;;;;;;16.57;97.11;95823.13;29394;198;64009;-56
2023/08/01 01:29:23;;;;;;;0.40;0.40;;;;;;;16.55;95.93;95828.94;29395;299;63009;-65
2023/08/01 01:29:55;;;;;;;0.40;0.40;;;;;;;16.55;96.47;95826.22;29395;302;63005;-56
2023/08/01 01:30:28;;;;;;;0.40;0.40;;;;;;;16.56;96.90;95824.28;29395;251;63009;-57
2023/08/01 01:31:02;;;;;;;0.40;0.40;;;;;;;16.59;97.51;95818.88;29395;245;63005;-56
2023/08/01 01:31:37;;;;;;;0.40;0.40;;;;;;;16.57;97.98;95804.75;29395;225;63016;-58
2023/08/01 01:32:09;;;;;;;0.40;0.40;;;;;;;16.57;98.36;95799.25;29395;245;63005;-58
2023/08/01 01:32:41;;;;;;;0.40;0.40;;;;;;;16.57;98.86;95793.00;29395;216;63009;-58
2023/08/01 01:33:16;;;;;;;0.40;0.40;;;;;;;16.56;99.48;95794.94;29395;261;63004;-57
2023/08/01 01:33:49;;;;;;;0.30;0.30;;;;;;;16.57;99.51;95788.31;29395;222;63009;-63
2023/08/01 01:34:21;;;;;;;0.30;0.30;;;;;;;16.54;98.94;95794.50;29394;250;64009;-56
2023/08/01 01:34:53;;;;;;;0.50;0.50;;;;;;;16.53;99.50;95792.13;29394;253;64009;-59
2023/08/01 01:35:24;;;;;;;0.65;0.65;;;;;;;16.55;99.30;95782.41;29395;202;63004;-57
2023/08/01 01:35:56;;;;;;;0.40;0.40;;;;;;;16.53;99.12;95787.44;29395;210;63008;-57
2023/08/01 01:36:27;;;;;;;0.40;0.40;;;;;;;16.52;99.46;95791.31;29395;211;63005;-56
2023/08/01 01:36:58;;;;;;;0.30;0.30;;;;;;;16.53;100.00;95787.44;29395;198;63009;-56
2023/08/01 01:37:30;;;;;;;0.40;0.40;;;;;;;16.51;100.00;95781.53;29395;240;63005;-56
2023/08/01 01:38:05;;;;;;;0.40;0.40;;;;;;;16.48;100.00;95775.97;29395;218;63009;-54
2023/08/01 01:38:36;;;;;;;0.40;0.40;;;;;;;16.43;100.00;95804.41;29395;222;63005;-56
2023/08/01 01:39:08;;;;;;;0.40;0.40;;;;;;;16.39;100.00;95792.59;29395;238;63009;-58
2023/08/01 01:39:40;;;;;;;2.08;1.30;;;;;;;16.40;100.00;95799.66;29394;235;64009;-56
2023/08/01 01:40:12;;;;;;;0.40;0.40;;;;;;;16.38;100.00;95801.94;29395;197;63013;-56
2023/08/01 01:40:43;;;;;;;0.30;0.30;;;;;;;16.35;100.00;95791.72;29395;199;63004;-56
2023/08/01 01:41:15;;;;;;;0.40;0.40;;;;;;;16.37;100.00;95800.34;29395;243;63009;-56
2023/08/01 01:41:46;;;;;;;0.40;0.40;;;;;;;16.35;100.00;95788.97;29395;222;63004;-57
2023/08/01 01:42:18;;;;;;;0.40;0.40;;;;;;;16.33;100.00;95794.00;29395;246;63009;-56
2023/08/01 01:42:49;;;;;;;0.40;0.40;;;;;;;16.29;100.00;95782.97;29395;211;63004;-57
2023/08/01 01:43:20;;;;;;;0.40;0.40;;;;;;;16.31;100.00;95779.88;29395;242;63008;-57
2023/08/01 01:43:52;;;;;;;0.40;0.40;;;;;;;16.29;100.00;95776.69;29395;210;63005;-57
2023/08/01 01:44:23;;;;;;;0.37;0.37;;;;;;;16.27;100.00;95771.63;29395;250;63009;-57
2023/08/01 01:44:54;;;;;;;0.40;0.40;;;;;;;16.26;100.00;95774.69;29394;249;64009;-58
2023/08/01 01:45:27;;;;;;;0.40;0.40;;;;;;;16.22;100.00;95771.87;29395;230;63009;-58
2023/08/01 01:45:58;;;;;;;0.40;0.40;;;;;;;16.21;100.00;95773.03;29395;228;63011;-58
2023/08/01 01:46:30;;;;;;;0.40;0.40;;;;;;;16.17;100.00;95771.34;29395;222;63005;-63
2023/08/01 01:47:01;;;;;;;0.40;0.40;;;;;;;16.18;100.00;95770.22;29395;207;63005;-57
2023/08/01 01:47:33;;;;;;;0.40;0.40;;;;;;;16.15;100.00;95773.66;29395;230;63009;-57
2023/08/01 01:48:05;;;;;;;0.40;0.40;;;;;;;16.14;100.00;95774.81;29394;212;64004;-57
2023/08/01 01:48:39;;;;;;;0.40;0.40;;;;;;;16.12;100.00;95769.69;29395;302;63009;-57
2023/08/01 01:49:11;;;;;;;0.40;0.40;;;;;;;16.11;100.00;95775.50;29395;234;63004;-57
2023/08/01 01:49:43;;;;;;;0.30;0.30;;;;;;;16.09;100.00;95762.97;29395;237;63008;-57
2023/08/01 01:50:15;;;;;;;0.40;0.40;;;;;;;16.10;100.00;95758.28;29394;225;64008;-65
2023/08/01 01:50:46;;;;;;;0.40;0.40;;;;;;;16.11;100.00;95764.56;29395;244;63009;-57
2023/08/01 01:51:17;;;;;;;0.40;0.40;;;;;;;16.08;100.00;95755.91;29395;216;63005;-57
2023/08/01 01:51:49;;;;;;;0.40;0.40;;;;;;;16.06;100.00;95755.47;29395;245;63009;-63
2023/08/01 01:52:20;;;;;;;0.40;0.40;;;;;;;16.03;100.00;95753.44;29395;219;63005;-57
2023/08/01 01:52:51;;;;;;;0.40;0.40;;;;;;;16.02;100.00;95751.84;29395;212;63009;-57
2023/08/01 01:53:22;;;;;;;0.40;0.40;;;;;;;16.02;100.00;95757.31;29395;210;63005;-57
2023/08/01 01:53:54;;;;;;;0.40;0.40;;;;;;;16.04;100.00;95755.03;29394;234;64009;-57
2023/08/01 01:54:25;;;;;;;0.50;0.50;;;;;;;16.08;100.00;95750.44;29395;214;63005;-56
2023/08/01 01:54:56;;;;;;;0.40;0.40;;;;;;;16.07;100.00;95759.00;29395;233;63009;-58
2023/08/01 01:55:35;;;;;;;0.40;0.40;;;;;;;16.02;100.00;95751.84;29394;265;64009;-57
2023/08/01 01:56:07;;;;;;;0.40;0.40;;;;;;;15.99;100.00;95757.25;29395;224;63009;-56
2023/08/01 01:56:39;;;;;;;0.40;0.40;;;;;;;15.95;100.00;95757.16;29395;220;63004;-57
2023/08/01 01:57:10;;;;;;;0.40;0.40;;;;;;;15.93;100.00;95753.22;29395;235;63009;-58
2023/08/01 01:57:41;;;;;;;0.40;0.40;;;;;;;15.90;100.00;95757.44;29395;224;63004;-56
2023/08/01 01:58:12;;;;;;;0.50;0.50;;;;;;;15.90;100.00;95748.44;29395;219;63009;-57
2023/08/01 01:58:44;;;;;;;0.40;0.40;;;;;;;15.89;100.00;95750.38;29395;237;63005;-58
2023/08/01 01:59:15;;;;;;;0.40;0.40;;;;;;;15.88;100.00;95746.06;29395;304;63009;-57
2023/08/01 01:59:46;;;;;;;0.40;0.40;;;;;;;15.89;100.00;95742.19;29395;233;63005;-57
2023/08/01 02:00:17;;;;;;;0.40;0.40;;;;;;;15.90;100.00;95746.50;29395;245;63009;-57
2023/08/01 02:00:51;;;;;;;0.40;0.40;;;;;;;15.88;100.00;95746.06;29394;219;64009;-57
2023/08/01 02:01:22;;;;;;;0.40;0.40;;;;;;;15.88;100.00;95746.06;29395;217;63009;-57
2023/08/01 02:01:53;;;;;;;0.40;0.40;;;;;;;15.89;100.00;95741.37;29395;210;63016;-58
2023/08/01 02:02:25;;;;;;;0.40;0.40;;;;;;;15.90;100.00;95741.03;29395;221;63009;-58
2023/08/01 02:02:56;;;;;;;0.40;0.40;;;;;;;15.93;100.00;95737.59;29395;213;63004;-58
2023/08/01 02:03:28;;;;;;;0.50;0.50;;;;;;;15.92;100.00;95741.47;29395;205;63009;-57
2023/08/01 02:03:59;;;;;;;0.40;0.40;;;;;;;15.92;100.00;95741.47;29395;196;63004;-57
2023/08/01 02:04:31;;;;;;;0.50;0.50;;;;;;;15.92;100.00;95738.75;29395;234;63009;-57
2023/08/01 02:05:05;;;;;;;0.40;0.40;;;;;;;15.94;100.00;95733.69;29395;224;63004;-57
2023/08/01 02:05:37;;;;;;;0.40;0.40;;;;;;;15.95;100.00;95734.47;29395;235;63009;-57
2023/08/01 02:06:08;;;;;;;0.40;0.40;;;;;;;15.93;100.00;95743.06;29394;203;64009;-57
2023/08/01 02:06:39;;;;;;;0.40;0.40;;;;;;;15.91;100.00;95745.38;29395;274;63009;-57
2023/08/01 02:07:11;;;;;;;0.40;0.40;;;;;;;15.91;100.00;95737.16;29395;202;63011;-57
2023/08/01 02:07:42;;;;;;;0.40;0.40;;;;;;;15.90;100.00;95743.78;29395;206;63009;-57
2023/08/01 02:08:13;;;;;;;0.40;0.40;;;;;;;15.90;100.00;95743.78;29395;204;63005;-62
2023/08/01 02:08:45;;;;;;;0.40;0.40;;;;;;;15.92;100.00;95744.22;29395;240;63009;-57
2023/08/01 02:09:16;;;;;;;0.40;0.40;;;;;;;15.94;100.00;95744.62;29395;254;63005;-57
2023/08/01 02:09:47;;;;;;;0.40;0.40;;;;;;;15.96;100.00;95747.00;29395;226;63009;-56
2023/08/01 02:10:19;;;;;;;0.40;0.40;;;;;;;15.96;100.00;95747.81;29394;257;64009;-62
2023/08/01 02:10:50;;;;;;;0.40;0.40;;;;;;;15.95;100.00;95745.41;29395;223;63009;-57
2023/08/01 02:11:21;;;;;;;0.40;0.40;;;;;;;15.93;100.00;95748.53;29395;216;63004;-62
2023/08/01 02:11:52;;;;;;;0.40;0.40;;;;;;;15.94;100.00;95750.09;29395;208;63009;-57
2023/08/01 02:12:24;;;;;;;0.40;0.40;;;;;;;15.95;100.00;95757.16;29395;220;63004;-57
2023/08/01 02:12:56;;;;;;;0.40;0.40;;;;;;;15.95;100.00;95751.69;29395;225;63008;-57
2023/08/01 02:13:31;;;;;;;0.40;0.40;;;;;;;15.94;100.00;95757.53;29395;215;63005;-61
2023/08/01 02:14:05;;;;;;;0.40;0.40;;;;;;;15.92;100.00;95752.41;29395;203;63009;-57
2023/08/01 02:14:37;;;;;;;0.40;0.40;;;;;;;15.91;100.00;95745.38;29395;241;63005;-58
2023/08/01 02:15:10;;;;;;;0.40;0.40;;;;;;;15.90;100.00;95741.03;29394;225;64013;-57
2023/08/01 02:15:41;;;;;;;0.80;0.80;;;;;;;15.89;100.00;95736.72;29395;222;63005;-59
2023/08/01 02:16:16;;;;;;;0.40;0.40;;;;;;;15.91;100.00;95739.87;29395;267;63009;-57
2023/08/01 02:16:47;;;;;;;0.40;0.40;;;;;;;15.88;100.00;95735.13;29395;238;63005;-57
2023/08/01 02:17:18;;;;;;;0.40;0.40;;;;;;;15.87;100.00;95730.81;29395;238;63009;-62
2023/08/01 02:17:50;;;;;;;0.40;0.40;;;;;;;15.86;100.00;95731.16;29395;231;63004;-57
2023/08/01 02:18:21;;;;;;;0.45;0.45;;;;;;;15.85;100.00;95730.34;29395;206;63009;-57
2023/08/01 02:18:52;;;;;;;0.40;0.40;;;;;;;15.83;100.00;95732.66;29395;260;63004;-63
2023/08/01 02:19:23;;;;;;;0.40;0.40;;;;;;;15.81;100.00;95740.41;29395;216;63009;-57
2023/08/01 02:19:55;;;;;;;0.40;0.40;;;;;;;15.81;100.00;95729.47;29394;250;64008;-57
2023/08/01 02:20:30;;;;;;;0.40;0.40;;;;;;;15.83;100.00;95727.19;29395;217;63008;-62
2023/08/01 02:21:01;;;;;;;0.40;0.40;;;;;;;15.86;100.00;95731.94;29395;199;63005;-64
2023/08/01 02:21:32;;;;;;;0.40;0.40;;;;;;;15.87;100.00;95728.06;29395;204;63009;-57
2023/08/01 02:22:04;;;;;;;0.40;0.40;;;;;;;15.87;100.00;95727.28;29395;202;63005;-57
2023/08/01 02:22:36;;;;;;;0.30;0.30;;;;;;;15.86;100.00;95736.62;29394;203;64013;-57
2023/08/01 02:23:07;;;;;;;0.40;0.40;;;;;;;15.86;100.00;95734.69;29395;231;63005;-57
2023/08/01 02:23:39;;;;;;;0.40;0.40;;;;;;;15.85;100.00;95735.84;29395;215;63009;-56
2023/08/01 02:24:11;;;;;;;0.40;0.40;;;;;;;15.86;100.00;95737.41;29395;202;63005;-57
2023/08/01 02:24:43;;;;;;;0.40;0.40;;;;;;;15.86;100.00;95737.41;29395;257;63009;-57
2023/08/01 02:25:14;;;;;;;0.40;0.40;;;;;;;15.86;100.00;95737.41;29395;216;63004;-62
2023/08/01 02:25:45;;;;;;;0.40;0.40;;;;;;;15.85;100.00;95735.84;29394;204;64013;-57
2023/08/01 02:26:17;;;;;;;0.40;0.40;;;;;;;15.85;100.00;95735.03;29395;218;63004;-56
2023/08/01 02:26:50;;;;;;;0.40;0.40;;;;;;;15.84;100.00;95739.72;29395;202;63009;-57
2023/08/01 02:27:21;;;;;;;0.40;0.40;;;;;;;15.84;100.00;95728.78;29395;241;63010;-58
2023/08/01 02:27:52;;;;;;;0.32;0.32;;;;;;;15.88;100.00;95729.66;29395;234;63008;-56
2023/08/01 02:28:24;;;;;;;0.40;0.40;;;;;;;15.87;100.00;95739.00;29395;197;63005;-57
2023/08/01 02:28:56;;;;;;;0.40;0.40;;;;;;;15.89;100.00;95741.37;29395;218;63009;-56
2023/08/01 02:29:27;;;;;;;0.40;0.40;;;;;;;15.88;100.00;95737.84;29395;209;63005;-57
2023/08/01 02:29:58;;;;;;;0.40;0.40;;;;;;;15.88;100.00;95740.59;29394;205;64013;-58
2023/08/01 02:30:30;;;;;;;0.40;0.40;;;;;;;15.88;100.00;95743.34;29395;220;63009;-56
2023/08/01 02:31:01;;;;;;;0.40;0.40;;;;;;;15.88;100.00;95743.34;29395;230;63009;-62
2023/08/01 02:31:32;;;;;;;0.40;0.40;;;;;;;15.88;100.00;95746.06;29395;213;63005;-64